PUA2539 SPJC-SUMU
Flight info
| Callsign | PUA2539 |
|---|---|
| Flight time | N/A |
| Altitude | 35000 |
| Route | SCO UL550 LOA UM789 JUJ UT672 ASODO/N0446F370 UT672 ERE UW8 PAR UL417 NIMBO |
| Aircraft | A320/M-SDE3FGHIRWY/LB1 |
Departure
| Time | N/A |
|---|---|
| Airport | Jorge Chávez International Airport (SPJC) |
Arrival
| Time | 2026-05-07 21:03 |
|---|---|
| Airport | Carrasco General Cesáreo L. Berisso International Airport (SUMU) |
| Time | Latitude | Longitude | Altitude | Speed | Heading |
|---|---|---|---|---|---|
| 2026-05-07 17:37 | -15.31608 | -74.95855 | 35064 ft | 479 kts | 145° |
| 2026-05-07 17:37 | -15.36870 | -74.91630 | 35062 ft | 479 kts | 145° |
| 2026-05-07 17:38 | -15.42130 | -74.87396 | 35057 ft | 478 kts | 145° |
| 2026-05-07 17:38 | -15.47387 | -74.83164 | 35071 ft | 478 kts | 145° |
| 2026-05-07 17:39 | -15.52642 | -74.78932 | 35060 ft | 478 kts | 145° |
| 2026-05-07 17:39 | -15.57017 | -74.75412 | 35052 ft | 478 kts | 145° |
| 2026-05-07 17:40 | -15.62280 | -74.71180 | 35049 ft | 478 kts | 145° |
| 2026-05-07 17:40 | -15.67533 | -74.66941 | 35040 ft | 478 kts | 145° |
| 2026-05-07 17:41 | -15.72790 | -74.62695 | 35045 ft | 478 kts | 145° |
| 2026-05-07 17:41 | -15.78043 | -74.58459 | 35044 ft | 478 kts | 145° |
| 2026-05-07 17:42 | -15.83299 | -74.54215 | 35042 ft | 479 kts | 145° |
| 2026-05-07 17:42 | -15.88552 | -74.49961 | 35036 ft | 479 kts | 145° |
| 2026-05-07 17:43 | -15.93807 | -74.45715 | 35030 ft | 479 kts | 145° |
| 2026-05-07 17:43 | -15.99063 | -74.41461 | 35028 ft | 479 kts | 145° |
| 2026-05-07 17:44 | -16.04321 | -74.37210 | 35027 ft | 479 kts | 145° |
| 2026-05-07 17:44 | -16.09578 | -74.32944 | 35023 ft | 479 kts | 145° |
| 2026-05-07 17:45 | -16.14796 | -74.28704 | 35036 ft | 478 kts | 145° |
| 2026-05-07 17:45 | -16.20044 | -74.24445 | 35022 ft | 479 kts | 145° |
| 2026-05-07 17:46 | -16.25299 | -74.20183 | 35022 ft | 479 kts | 145° |
| 2026-05-07 17:46 | -16.30552 | -74.15917 | 35023 ft | 479 kts | 145° |
| 2026-05-07 17:47 | -16.35806 | -74.11643 | 35023 ft | 479 kts | 145° |
| 2026-05-07 17:47 | -16.41055 | -74.07366 | 35023 ft | 479 kts | 145° |
| 2026-05-07 17:48 | -16.46310 | -74.03095 | 35033 ft | 479 kts | 145° |
| 2026-05-07 17:48 | -16.51564 | -73.98816 | 35026 ft | 479 kts | 145° |
| 2026-05-07 17:49 | -16.56812 | -73.94526 | 35027 ft | 479 kts | 145° |
| 2026-05-07 17:49 | -16.62060 | -73.90242 | 35027 ft | 479 kts | 145° |
| 2026-05-07 17:50 | -16.67300 | -73.85956 | 35028 ft | 479 kts | 145° |
| 2026-05-07 17:50 | -16.72540 | -73.81672 | 35032 ft | 478 kts | 145° |
| 2026-05-07 17:51 | -16.77784 | -73.77391 | 35031 ft | 479 kts | 145° |
| 2026-05-07 17:51 | -16.83024 | -73.73104 | 35032 ft | 479 kts | 145° |
| 2026-05-07 17:52 | -16.88262 | -73.68804 | 35026 ft | 479 kts | 145° |
| 2026-05-07 17:52 | -16.93502 | -73.64506 | 35024 ft | 479 kts | 145° |
| 2026-05-07 17:53 | -16.98736 | -73.60207 | 35029 ft | 479 kts | 145° |
| 2026-05-07 17:53 | -17.04006 | -73.55881 | 35030 ft | 478 kts | 145° |
| 2026-05-07 17:54 | -17.09241 | -73.51577 | 35038 ft | 479 kts | 145° |
| 2026-05-07 17:54 | -17.14441 | -73.47292 | 35031 ft | 479 kts | 145° |
| 2026-05-07 17:55 | -17.19680 | -73.42985 | 35030 ft | 479 kts | 145° |
| 2026-05-07 17:55 | -17.24925 | -73.38673 | 35029 ft | 479 kts | 145° |
| 2026-05-07 17:56 | -17.30160 | -73.34352 | 35032 ft | 479 kts | 145° |
| 2026-05-07 17:56 | -17.35395 | -73.30028 | 35029 ft | 479 kts | 145° |
| 2026-05-07 17:57 | -17.39780 | -73.26401 | 35040 ft | 479 kts | 145° |
| 2026-05-07 17:57 | -17.45873 | -73.21370 | 35026 ft | 480 kts | 145° |
| 2026-05-07 17:58 | -17.51116 | -73.17041 | 35029 ft | 480 kts | 145° |
| 2026-05-07 17:58 | -17.56362 | -73.12704 | 35030 ft | 480 kts | 145° |
| 2026-05-07 17:59 | -17.61593 | -73.08379 | 35020 ft | 479 kts | 145° |
| 2026-05-07 17:59 | -17.66833 | -73.04039 | 35025 ft | 480 kts | 145° |
| 2026-05-07 18:00 | -17.72072 | -72.99679 | 35020 ft | 481 kts | 145° |
| 2026-05-07 18:00 | -17.77328 | -72.95319 | 35011 ft | 482 kts | 145° |
| 2026-05-07 18:01 | -17.82593 | -72.90952 | 35021 ft | 483 kts | 145° |
| 2026-05-07 18:01 | -17.87861 | -72.86571 | 35027 ft | 482 kts | 145° |
| 2026-05-07 18:02 | -17.95750 | -72.80002 | 35028 ft | 482 kts | 145° |
| 2026-05-07 18:03 | -18.01009 | -72.75629 | 35030 ft | 482 kts | 145° |
| 2026-05-07 18:03 | -18.06264 | -72.71240 | 35032 ft | 482 kts | 145° |
| 2026-05-07 18:04 | -18.11548 | -72.66829 | 35032 ft | 482 kts | 145° |
| 2026-05-07 18:04 | -18.16806 | -72.62441 | 35027 ft | 482 kts | 145° |
| 2026-05-07 18:05 | -18.22024 | -72.58085 | 35031 ft | 482 kts | 145° |
| 2026-05-07 18:05 | -18.27267 | -72.53710 | 35039 ft | 481 kts | 145° |
| 2026-05-07 18:06 | -18.32535 | -72.49300 | 35037 ft | 481 kts | 145° |
| 2026-05-07 18:06 | -18.37741 | -72.44934 | 35019 ft | 482 kts | 145° |
| 2026-05-07 18:07 | -18.43034 | -72.40505 | 35019 ft | 483 kts | 145° |
| 2026-05-07 18:07 | -18.48271 | -72.36123 | 35020 ft | 484 kts | 145° |
| 2026-05-07 18:08 | -18.53537 | -72.31703 | 35023 ft | 484 kts | 145° |
| 2026-05-07 18:08 | -18.58842 | -72.27254 | 35028 ft | 484 kts | 145° |
| 2026-05-07 18:09 | -18.64108 | -72.22821 | 35035 ft | 485 kts | 145° |
| 2026-05-07 18:09 | -18.69346 | -72.18409 | 35036 ft | 485 kts | 145° |
| 2026-05-07 18:10 | -18.74619 | -72.13974 | 35036 ft | 485 kts | 145° |
| 2026-05-07 18:10 | -18.79899 | -72.09549 | 35035 ft | 485 kts | 145° |
| 2026-05-07 18:11 | -18.85176 | -72.05109 | 35038 ft | 485 kts | 145° |
| 2026-05-07 18:11 | -18.90437 | -72.00656 | 35047 ft | 485 kts | 145° |
| 2026-05-07 18:12 | -18.95700 | -71.96201 | 35040 ft | 485 kts | 145° |
| 2026-05-07 18:12 | -19.00969 | -71.91755 | 35037 ft | 485 kts | 146° |
| 2026-05-07 18:13 | -19.06239 | -71.87300 | 35038 ft | 485 kts | 145° |
| 2026-05-07 18:13 | -19.11499 | -71.82843 | 35038 ft | 485 kts | 145° |
| 2026-05-07 18:14 | -19.16760 | -71.78382 | 35036 ft | 485 kts | 145° |
| 2026-05-07 18:14 | -19.22024 | -71.73926 | 35045 ft | 485 kts | 146° |
| 2026-05-07 18:15 | -19.27289 | -71.69467 | 35043 ft | 485 kts | 146° |
| 2026-05-07 18:15 | -19.32553 | -71.64991 | 35031 ft | 486 kts | 146° |
| 2026-05-07 18:16 | -19.37857 | -71.60480 | 35032 ft | 486 kts | 146° |
| 2026-05-07 18:16 | -19.43131 | -71.56001 | 35033 ft | 486 kts | 146° |
| 2026-05-07 18:17 | -19.48392 | -71.51513 | 35034 ft | 485 kts | 146° |
| 2026-05-07 18:17 | -19.53623 | -71.47055 | 35052 ft | 485 kts | 146° |
| 2026-05-07 18:18 | -19.58029 | -71.43299 | 35042 ft | 486 kts | 146° |
| 2026-05-07 18:18 | -19.63293 | -71.38804 | 35039 ft | 486 kts | 146° |
| 2026-05-07 18:19 | -19.68557 | -71.34306 | 35034 ft | 486 kts | 146° |
| 2026-05-07 18:19 | -19.73818 | -71.29806 | 35032 ft | 486 kts | 146° |
| 2026-05-07 18:20 | -19.79090 | -71.25305 | 35045 ft | 486 kts | 146° |
| 2026-05-07 18:20 | -19.84357 | -71.20805 | 35038 ft | 486 kts | 147° |
| 2026-05-07 18:21 | -19.89630 | -71.16288 | 35033 ft | 486 kts | 147° |
| 2026-05-07 18:21 | -19.94899 | -71.11765 | 35031 ft | 487 kts | 146° |
| 2026-05-07 18:22 | -20.00160 | -71.07235 | 35028 ft | 487 kts | 146° |
| 2026-05-07 18:22 | -20.05429 | -71.02709 | 35029 ft | 487 kts | 147° |
| 2026-05-07 18:23 | -20.10700 | -70.98185 | 35052 ft | 487 kts | 147° |
| 2026-05-07 18:23 | -20.15971 | -70.93644 | 35041 ft | 487 kts | 147° |
| 2026-05-07 18:24 | -20.21242 | -70.89100 | 35035 ft | 488 kts | 147° |
| 2026-05-07 18:24 | -20.26512 | -70.84550 | 35031 ft | 488 kts | 147° |
| 2026-05-07 18:25 | -20.31753 | -70.80022 | 35024 ft | 488 kts | 147° |
| 2026-05-07 18:25 | -20.37059 | -70.75432 | 35024 ft | 488 kts | 147° |
| 2026-05-07 18:26 | -20.42306 | -70.70889 | 35034 ft | 489 kts | 147° |
| 2026-05-07 18:26 | -20.47620 | -70.66288 | 35028 ft | 489 kts | 147° |
| 2026-05-07 18:27 | -20.52903 | -70.61709 | 35023 ft | 489 kts | 147° |
| 2026-05-07 18:27 | -20.58187 | -70.57129 | 35023 ft | 489 kts | 147° |
| 2026-05-07 18:28 | -20.63440 | -70.52564 | 35022 ft | 490 kts | 147° |
| 2026-05-07 18:28 | -20.68716 | -70.47968 | 35039 ft | 490 kts | 147° |
| 2026-05-07 18:29 | -20.74010 | -70.43364 | 35031 ft | 490 kts | 147° |
| 2026-05-07 18:29 | -20.79300 | -70.38769 | 35026 ft | 490 kts | 147° |
| 2026-05-07 18:30 | -20.84596 | -70.34161 | 35021 ft | 490 kts | 147° |
| 2026-05-07 18:30 | -20.89883 | -70.29549 | 35024 ft | 491 kts | 147° |
| 2026-05-07 18:31 | -20.95171 | -70.24920 | 35024 ft | 491 kts | 147° |
| 2026-05-07 18:31 | -21.00456 | -70.20297 | 35024 ft | 491 kts | 147° |
| 2026-05-07 18:32 | -21.05742 | -70.15674 | 35017 ft | 491 kts | 147° |
| 2026-05-07 18:32 | -21.11036 | -70.11048 | 35021 ft | 491 kts | 147° |
| 2026-05-07 18:33 | -21.16331 | -70.06416 | 35012 ft | 491 kts | 147° |
| 2026-05-07 18:33 | -21.21615 | -70.01779 | 35011 ft | 491 kts | 147° |
| 2026-05-07 18:34 | -21.26902 | -69.97138 | 35029 ft | 491 kts | 147° |
| 2026-05-07 18:34 | -21.32187 | -69.92493 | 35013 ft | 491 kts | 147° |
| 2026-05-07 18:35 | -21.37464 | -69.87842 | 35009 ft | 490 kts | 147° |
| 2026-05-07 18:35 | -21.42740 | -69.83194 | 35003 ft | 491 kts | 148° |
| 2026-05-07 18:36 | -21.48018 | -69.78548 | 34976 ft | 491 kts | 148° |
| 2026-05-07 18:36 | -21.53299 | -69.73891 | 34993 ft | 491 kts | 148° |
| 2026-05-07 18:37 | -21.58576 | -69.69231 | 34982 ft | 491 kts | 148° |
| 2026-05-07 18:37 | -21.63846 | -69.64570 | 34965 ft | 490 kts | 148° |
| 2026-05-07 18:38 | -21.69107 | -69.59911 | 34959 ft | 490 kts | 148° |
| 2026-05-07 18:38 | -21.74370 | -69.55252 | 34951 ft | 490 kts | 148° |
| 2026-05-07 18:39 | -21.79639 | -69.50594 | 34977 ft | 490 kts | 148° |
| 2026-05-07 18:39 | -21.84898 | -69.45929 | 34968 ft | 490 kts | 148° |
| 2026-05-07 18:40 | -21.90154 | -69.41254 | 34963 ft | 490 kts | 148° |
| 2026-05-07 18:40 | -21.95410 | -69.36577 | 34991 ft | 490 kts | 148° |
| 2026-05-07 18:41 | -22.00660 | -69.31899 | 34985 ft | 490 kts | 148° |
| 2026-05-07 18:41 | -22.05913 | -69.27217 | 34984 ft | 490 kts | 148° |
| 2026-05-07 18:42 | -22.11151 | -69.22539 | 35049 ft | 488 kts | 148° |
| 2026-05-07 18:42 | -22.16368 | -69.17875 | 35038 ft | 486 kts | 148° |
| 2026-05-07 18:43 | -22.21578 | -69.13229 | 35024 ft | 486 kts | 148° |
| 2026-05-07 18:43 | -22.26781 | -69.08582 | 35043 ft | 485 kts | 148° |
| 2026-05-07 18:44 | -22.31979 | -69.03928 | 35042 ft | 485 kts | 148° |
| 2026-05-07 18:44 | -22.37162 | -68.99275 | 35068 ft | 483 kts | 147° |
| 2026-05-07 18:45 | -22.42323 | -68.94646 | 35062 ft | 480 kts | 147° |
| 2026-05-07 18:45 | -22.47448 | -68.90032 | 35056 ft | 480 kts | 144° |
| 2026-05-07 18:46 | -22.51802 | -68.84458 | 35073 ft | 493 kts | 126° |
| 2026-05-07 18:46 | -22.55177 | -68.77965 | 35054 ft | 495 kts | 124° |
| 2026-05-07 18:47 | -22.58539 | -68.71452 | 35047 ft | 496 kts | 124° |
| 2026-05-07 18:47 | -22.61898 | -68.64942 | 35067 ft | 494 kts | 124° |
| 2026-05-07 18:48 | -22.65246 | -68.58466 | 35054 ft | 492 kts | 124° |
| 2026-05-07 18:48 | -22.68579 | -68.52000 | 35072 ft | 491 kts | 124° |
| 2026-05-07 18:49 | -22.71898 | -68.45537 | 35070 ft | 491 kts | 124° |
| 2026-05-07 18:49 | -22.75223 | -68.39067 | 35038 ft | 491 kts | 124° |
| 2026-05-07 18:50 | -22.78529 | -68.32641 | 35062 ft | 491 kts | 124° |
| 2026-05-07 18:50 | -22.81878 | -68.26135 | 35047 ft | 491 kts | 124° |
| 2026-05-07 18:51 | -22.85202 | -68.19664 | 35055 ft | 490 kts | 123° |
| 2026-05-07 18:51 | -22.88487 | -68.13248 | 35070 ft | 490 kts | 124° |
| 2026-05-07 18:52 | -22.91790 | -68.06791 | 35071 ft | 489 kts | 124° |
| 2026-05-07 18:52 | -22.95097 | -68.00332 | 35056 ft | 489 kts | 124° |
| 2026-05-07 18:53 | -22.98395 | -67.93876 | 35048 ft | 489 kts | 124° |
| 2026-05-07 18:53 | -23.01682 | -67.87430 | 35094 ft | 486 kts | 124° |
| 2026-05-07 18:54 | -23.04968 | -67.80982 | 35074 ft | 488 kts | 124° |
| 2026-05-07 18:54 | -23.08252 | -67.74539 | 35164 ft | 488 kts | 123° |
| 2026-05-07 18:55 | -23.11528 | -67.68102 | 35151 ft | 486 kts | 123° |
| 2026-05-07 18:55 | -23.14781 | -67.61681 | 35174 ft | 485 kts | 124° |
| 2026-05-07 18:56 | -23.18029 | -67.55258 | 35170 ft | 485 kts | 124° |
| 2026-05-07 18:56 | -23.20725 | -67.49923 | 35142 ft | 485 kts | 124° |
| 2026-05-07 18:57 | -23.24526 | -67.42415 | 35157 ft | 485 kts | 123° |
| 2026-05-07 18:57 | -23.27221 | -67.37074 | 35132 ft | 485 kts | 123° |
| 2026-05-07 18:58 | -23.30461 | -67.30649 | 35183 ft | 484 kts | 123° |
| 2026-05-07 18:58 | -23.33685 | -67.24231 | 35100 ft | 483 kts | 124° |
| 2026-05-07 18:59 | -23.36909 | -67.17816 | 35088 ft | 484 kts | 124° |
| 2026-05-07 18:59 | -23.40142 | -67.11381 | 35047 ft | 485 kts | 123° |
| 2026-05-07 19:00 | -23.43383 | -67.04928 | 35046 ft | 486 kts | 123° |
| 2026-05-07 19:00 | -23.46943 | -66.98734 | 35026 ft | 475 kts | 139° |
| 2026-05-07 19:00 | -23.49410 | -66.96417 | 35017 ft | 463 kts | 153° |
| 2026-05-07 19:01 | -23.52090 | -66.94487 | 35018 ft | 462 kts | 154° |
| 2026-05-07 19:01 | -23.57485 | -66.90643 | 35017 ft | 463 kts | 153° |
| 2026-05-07 19:02 | -23.62888 | -66.86805 | 34979 ft | 464 kts | 153° |
| 2026-05-07 19:02 | -23.68296 | -66.82939 | 34965 ft | 464 kts | 153° |
| 2026-05-07 19:03 | -23.73710 | -66.79059 | 34975 ft | 467 kts | 153° |
| 2026-05-07 19:03 | -23.79137 | -66.75161 | 34955 ft | 467 kts | 153° |
| 2026-05-07 19:04 | -23.84570 | -66.71266 | 35003 ft | 467 kts | 153° |
| 2026-05-07 19:04 | -23.90002 | -66.67379 | 34995 ft | 466 kts | 153° |
| 2026-05-07 19:05 | -23.95418 | -66.63487 | 34964 ft | 466 kts | 153° |
| 2026-05-07 19:05 | -24.00826 | -66.59590 | 34957 ft | 465 kts | 153° |
| 2026-05-07 19:06 | -24.06233 | -66.55703 | 34929 ft | 465 kts | 153° |
| 2026-05-07 19:06 | -24.14366 | -66.49853 | 34914 ft | 468 kts | 151° |
| 2026-05-07 19:07 | -24.19809 | -66.45921 | 34910 ft | 469 kts | 153° |
| 2026-05-07 19:07 | -24.25273 | -66.41977 | 34932 ft | 471 kts | 153° |
| 2026-05-07 19:08 | -24.30744 | -66.38032 | 34935 ft | 471 kts | 152° |
| 2026-05-07 19:08 | -24.36205 | -66.34073 | 34930 ft | 470 kts | 154° |
| 2026-05-07 19:09 | -24.41653 | -66.30118 | 34918 ft | 469 kts | 152° |
| 2026-05-07 19:09 | -24.47111 | -66.26171 | 34895 ft | 470 kts | 153° |
| 2026-05-07 19:10 | -24.52550 | -66.22224 | 34853 ft | 463 kts | 153° |
| 2026-05-07 19:10 | -24.57900 | -66.18323 | 34829 ft | 462 kts | 152° |
| 2026-05-07 19:11 | -24.63228 | -66.14446 | 34802 ft | 456 kts | 153° |
| 2026-05-07 19:11 | -24.68500 | -66.10608 | 34765 ft | 454 kts | 153° |
| 2026-05-07 19:12 | -24.73727 | -66.06802 | 34744 ft | 454 kts | 153° |
| 2026-05-07 19:12 | -24.79007 | -66.02949 | 34743 ft | 456 kts | 153° |
| 2026-05-07 19:13 | -24.84293 | -65.99085 | 34780 ft | 456 kts | 154° |
| 2026-05-07 19:13 | -24.89574 | -65.95220 | 34795 ft | 454 kts | 154° |
| 2026-05-07 19:14 | -24.94825 | -65.91370 | 34771 ft | 454 kts | 154° |
| 2026-05-07 19:14 | -25.00099 | -65.87508 | 34740 ft | 456 kts | 154° |
| 2026-05-07 19:15 | -25.05394 | -65.83628 | 34783 ft | 458 kts | 154° |
| 2026-05-07 19:15 | -25.10700 | -65.79734 | 34816 ft | 457 kts | 155° |
| 2026-05-07 19:16 | -25.15979 | -65.75846 | 34831 ft | 455 kts | 155° |
| 2026-05-07 19:16 | -25.21234 | -65.71977 | 34872 ft | 454 kts | 155° |
| 2026-05-07 19:17 | -25.26475 | -65.68116 | 34865 ft | 452 kts | 155° |
| 2026-05-07 19:17 | -25.31701 | -65.64259 | 34866 ft | 452 kts | 155° |
| 2026-05-07 19:18 | -25.36917 | -65.60409 | 34872 ft | 450 kts | 153° |
| 2026-05-07 19:18 | -25.42079 | -65.56598 | 34878 ft | 449 kts | 153° |
| 2026-05-07 19:19 | -25.47268 | -65.52755 | 34910 ft | 449 kts | 153° |
| 2026-05-07 19:19 | -25.52457 | -65.48908 | 34911 ft | 448 kts | 153° |
| 2026-05-07 19:20 | -25.57645 | -65.45068 | 34940 ft | 448 kts | 153° |
| 2026-05-07 19:20 | -25.62813 | -65.41227 | 34937 ft | 444 kts | 154° |
| 2026-05-07 19:21 | -25.67932 | -65.37426 | 34958 ft | 442 kts | 154° |
| 2026-05-07 19:21 | -25.73048 | -65.33624 | 34951 ft | 443 kts | 154° |
| 2026-05-07 19:22 | -25.78161 | -65.29818 | 34963 ft | 443 kts | 154° |
| 2026-05-07 19:22 | -25.83292 | -65.25992 | 34938 ft | 445 kts | 154° |
| 2026-05-07 19:23 | -25.88440 | -65.22145 | 34986 ft | 447 kts | 154° |
| 2026-05-07 19:23 | -25.93599 | -65.18288 | 34979 ft | 446 kts | 154° |
| 2026-05-07 19:24 | -25.98751 | -65.14440 | 34970 ft | 446 kts | 154° |
| 2026-05-07 19:24 | -26.03904 | -65.10588 | 34954 ft | 446 kts | 154° |
| 2026-05-07 19:25 | -26.09055 | -65.06735 | 34957 ft | 446 kts | 154° |
| 2026-05-07 19:25 | -26.14203 | -65.02875 | 34957 ft | 446 kts | 154° |
| 2026-05-07 19:26 | -26.19347 | -64.99006 | 34955 ft | 446 kts | 154° |
| 2026-05-07 19:26 | -26.24493 | -64.95130 | 34929 ft | 448 kts | 154° |
| 2026-05-07 19:27 | -26.29628 | -64.91263 | 34924 ft | 449 kts | 154° |
| 2026-05-07 19:27 | -26.34816 | -64.87358 | 34981 ft | 450 kts | 154° |
| 2026-05-07 19:28 | -26.40002 | -64.83446 | 34973 ft | 449 kts | 154° |
| 2026-05-07 19:28 | -26.45172 | -64.79542 | 34972 ft | 448 kts | 154° |
| 2026-05-07 19:29 | -26.50336 | -64.75639 | 34973 ft | 448 kts | 154° |
| 2026-05-07 19:29 | -26.55488 | -64.71733 | 34961 ft | 447 kts | 154° |
| 2026-05-07 19:30 | -26.60624 | -64.67839 | 34938 ft | 443 kts | 155° |
| 2026-05-07 19:30 | -26.65700 | -64.63989 | 34922 ft | 440 kts | 155° |
| 2026-05-07 19:31 | -26.70775 | -64.60141 | 34920 ft | 441 kts | 155° |
| 2026-05-07 19:31 | -26.75852 | -64.56289 | 34919 ft | 441 kts | 155° |
| 2026-05-07 19:32 | -26.80935 | -64.52424 | 34919 ft | 442 kts | 155° |
| 2026-05-07 19:32 | -26.86009 | -64.48552 | 34962 ft | 441 kts | 155° |
| 2026-05-07 19:33 | -26.91068 | -64.44696 | 34949 ft | 439 kts | 155° |
| 2026-05-07 19:33 | -26.96108 | -64.40842 | 34943 ft | 438 kts | 155° |
| 2026-05-07 19:34 | -27.01144 | -64.36991 | 34937 ft | 438 kts | 155° |
| 2026-05-07 19:34 | -27.06178 | -64.33141 | 34970 ft | 439 kts | 155° |
| 2026-05-07 19:35 | -27.11236 | -64.29273 | 34930 ft | 440 kts | 155° |
| 2026-05-07 19:35 | -27.16293 | -64.25404 | 34926 ft | 440 kts | 155° |
| 2026-05-07 19:36 | -27.21339 | -64.21525 | 34921 ft | 440 kts | 155° |
| 2026-05-07 19:36 | -27.26357 | -64.17663 | 34919 ft | 439 kts | 155° |
| 2026-05-07 19:37 | -27.31396 | -64.13783 | 34924 ft | 438 kts | 156° |
| 2026-05-07 19:37 | -27.36381 | -64.09936 | 34906 ft | 433 kts | 156° |
| 2026-05-07 19:38 | -27.41351 | -64.06108 | 34896 ft | 433 kts | 156° |
| 2026-05-07 19:38 | -27.46326 | -64.02269 | 34884 ft | 435 kts | 156° |
| 2026-05-07 19:39 | -27.51337 | -63.98405 | 34883 ft | 438 kts | 156° |
| 2026-05-07 19:39 | -27.55552 | -63.95152 | 34925 ft | 440 kts | 156° |
| 2026-05-07 19:40 | -27.61421 | -63.90602 | 34906 ft | 440 kts | 156° |
| 2026-05-07 19:40 | -27.66467 | -63.86681 | 34908 ft | 440 kts | 155° |
| 2026-05-07 19:41 | -27.71513 | -63.82757 | 34898 ft | 440 kts | 156° |
| 2026-05-07 19:41 | -27.75746 | -63.79468 | 34906 ft | 440 kts | 156° |
| 2026-05-07 19:42 | -27.80778 | -63.75550 | 34902 ft | 438 kts | 155° |
| 2026-05-07 19:42 | -27.85806 | -63.71637 | 34886 ft | 440 kts | 155° |
| 2026-05-07 19:43 | -27.90867 | -63.67699 | 34873 ft | 443 kts | 155° |
| 2026-05-07 19:43 | -27.95914 | -63.63762 | 34870 ft | 445 kts | 155° |
| 2026-05-07 19:44 | -28.01044 | -63.59748 | 34933 ft | 446 kts | 154° |
| 2026-05-07 19:44 | -28.06138 | -63.55757 | 34919 ft | 445 kts | 154° |
| 2026-05-07 19:45 | -28.11229 | -63.51765 | 34905 ft | 445 kts | 154° |
| 2026-05-07 19:45 | -28.16316 | -63.47770 | 34902 ft | 445 kts | 155° |
| 2026-05-07 19:46 | -28.21397 | -63.43776 | 34896 ft | 444 kts | 154° |
| 2026-05-07 19:46 | -28.26517 | -63.39755 | 34901 ft | 451 kts | 154° |
| 2026-05-07 19:47 | -28.31688 | -63.35691 | 34886 ft | 453 kts | 153° |
| 2026-05-07 19:47 | -28.36865 | -63.31607 | 34882 ft | 454 kts | 153° |
| 2026-05-07 19:48 | -28.42049 | -63.27510 | 34876 ft | 454 kts | 153° |
| 2026-05-07 19:48 | -28.47236 | -63.23416 | 34879 ft | 454 kts | 153° |
| 2026-05-07 19:49 | -28.52421 | -63.19306 | 34877 ft | 454 kts | 153° |
| 2026-05-07 19:49 | -28.57608 | -63.15190 | 34881 ft | 454 kts | 153° |
| 2026-05-07 19:50 | -28.62803 | -63.11083 | 34870 ft | 456 kts | 153° |
| 2026-05-07 19:50 | -28.68079 | -63.06908 | 34937 ft | 466 kts | 152° |
| 2026-05-07 19:51 | -28.73407 | -63.02668 | 34896 ft | 468 kts | 152° |
| 2026-05-07 19:51 | -28.78743 | -62.98410 | 34887 ft | 468 kts | 152° |
| 2026-05-07 19:52 | -28.84079 | -62.94153 | 34893 ft | 468 kts | 152° |
| 2026-05-07 19:52 | -28.89421 | -62.89896 | 34878 ft | 468 kts | 152° |
| 2026-05-07 19:53 | -28.94753 | -62.85634 | 34908 ft | 468 kts | 151° |
| 2026-05-07 19:53 | -29.00088 | -62.81363 | 34886 ft | 469 kts | 150° |
| 2026-05-07 19:54 | -29.05497 | -62.77044 | 34886 ft | 479 kts | 150° |
| 2026-05-07 19:54 | -29.10968 | -62.72655 | 34886 ft | 481 kts | 150° |
| 2026-05-07 19:55 | -29.16437 | -62.68261 | 34883 ft | 479 kts | 150° |
| 2026-05-07 19:55 | -29.21890 | -62.63871 | 34885 ft | 479 kts | 150° |
| 2026-05-07 19:56 | -29.27341 | -62.59474 | 34884 ft | 479 kts | 150° |
| 2026-05-07 19:56 | -29.32766 | -62.55103 | 34878 ft | 479 kts | 150° |
| 2026-05-07 19:57 | -29.38217 | -62.50705 | 34889 ft | 480 kts | 149° |
| 2026-05-07 19:57 | -29.43688 | -62.46281 | 34859 ft | 482 kts | 149° |
| 2026-05-07 19:58 | -29.49188 | -62.41825 | 34856 ft | 484 kts | 149° |
| 2026-05-07 19:58 | -29.54694 | -62.37363 | 34858 ft | 485 kts | 149° |
| 2026-05-07 19:59 | -29.60202 | -62.32888 | 34890 ft | 485 kts | 149° |
| 2026-05-07 19:59 | -29.65715 | -62.28410 | 34886 ft | 485 kts | 149° |
| 2026-05-07 20:00 | -29.71229 | -62.23929 | 34887 ft | 486 kts | 149° |
| 2026-05-07 20:00 | -29.76754 | -62.19431 | 34849 ft | 488 kts | 148° |
| 2026-05-07 20:01 | -29.82313 | -62.14888 | 34864 ft | 490 kts | 148° |
| 2026-05-07 20:01 | -29.87882 | -62.10330 | 34865 ft | 491 kts | 148° |
| 2026-05-07 20:02 | -29.93462 | -62.05769 | 34859 ft | 492 kts | 148° |
| 2026-05-07 20:02 | -29.99041 | -62.01197 | 34883 ft | 492 kts | 148° |
| 2026-05-07 20:03 | -30.04618 | -61.96627 | 34886 ft | 491 kts | 148° |
| 2026-05-07 20:03 | -30.10171 | -61.92060 | 34864 ft | 488 kts | 147° |
| 2026-05-07 20:04 | -30.15727 | -61.87477 | 34840 ft | 492 kts | 147° |
| 2026-05-07 20:04 | -30.21299 | -61.82873 | 34863 ft | 493 kts | 147° |
| 2026-05-07 20:05 | -30.26888 | -61.78264 | 34859 ft | 493 kts | 147° |
| 2026-05-07 20:05 | -30.32469 | -61.73641 | 34855 ft | 493 kts | 147° |
| 2026-05-07 20:06 | -30.38049 | -61.69023 | 34855 ft | 493 kts | 147° |
| 2026-05-07 20:06 | -30.43598 | -61.64428 | 34873 ft | 493 kts | 146° |
| 2026-05-07 20:07 | -30.49166 | -61.59809 | 34870 ft | 492 kts | 146° |
| 2026-05-07 20:07 | -30.54719 | -61.55185 | 34866 ft | 491 kts | 146° |
| 2026-05-07 20:08 | -30.60266 | -61.50559 | 34862 ft | 491 kts | 146° |
| 2026-05-07 20:08 | -30.65815 | -61.45931 | 34848 ft | 490 kts | 146° |
| 2026-05-07 20:09 | -30.71348 | -61.41304 | 34845 ft | 490 kts | 146° |
| 2026-05-07 20:10 | -30.79643 | -61.34373 | 34840 ft | 490 kts | 146° |
| 2026-05-07 20:10 | -30.85180 | -61.29735 | 34830 ft | 490 kts | 146° |
| 2026-05-07 20:11 | -30.90724 | -61.25085 | 34824 ft | 491 kts | 146° |
| 2026-05-07 20:11 | -30.96269 | -61.20431 | 34817 ft | 492 kts | 146° |
| 2026-05-07 20:12 | -31.01821 | -61.15765 | 34819 ft | 492 kts | 146° |
| 2026-05-07 20:12 | -31.07332 | -61.11118 | 34822 ft | 492 kts | 145° |
| 2026-05-07 20:13 | -31.12882 | -61.06429 | 34825 ft | 492 kts | 145° |
| 2026-05-07 20:13 | -31.18431 | -61.01734 | 34788 ft | 493 kts | 144° |
| 2026-05-07 20:14 | -31.24008 | -60.97010 | 34801 ft | 497 kts | 144° |
| 2026-05-07 20:14 | -31.29623 | -60.92252 | 34789 ft | 499 kts | 144° |
| 2026-05-07 20:15 | -31.35266 | -60.87468 | 34793 ft | 501 kts | 144° |
| 2026-05-07 20:15 | -31.40912 | -60.82663 | 34788 ft | 502 kts | 144° |
| 2026-05-07 20:16 | -31.46558 | -60.77839 | 34828 ft | 502 kts | 144° |
| 2026-05-07 20:16 | -31.52198 | -60.73016 | 34774 ft | 502 kts | 143° |
| 2026-05-07 20:17 | -31.57868 | -60.68181 | 34768 ft | 505 kts | 143° |
| 2026-05-07 20:17 | -31.63563 | -60.63318 | 34788 ft | 507 kts | 143° |
| 2026-05-07 20:18 | -31.69268 | -60.58431 | 34808 ft | 508 kts | 143° |
| 2026-05-07 20:18 | -31.74973 | -60.53539 | 34809 ft | 508 kts | 143° |
| 2026-05-07 20:19 | -31.80533 | -60.48433 | 34808 ft | 506 kts | 134° |
| 2026-05-07 20:19 | -31.85030 | -60.42114 | 34781 ft | 504 kts | 124° |
| 2026-05-07 20:20 | -31.89336 | -60.35562 | 34777 ft | 507 kts | 124° |
| 2026-05-07 20:20 | -31.93637 | -60.29037 | 34767 ft | 508 kts | 124° |
| 2026-05-07 20:21 | -31.97970 | -60.22446 | 34762 ft | 509 kts | 124° |
| 2026-05-07 20:21 | -32.02292 | -60.15834 | 34730 ft | 509 kts | 123° |
| 2026-05-07 20:22 | -32.06622 | -60.09192 | 34722 ft | 512 kts | 123° |
| 2026-05-07 20:22 | -32.10976 | -60.02512 | 34724 ft | 515 kts | 123° |
| 2026-05-07 20:23 | -32.14644 | -59.96888 | 34721 ft | 516 kts | 123° |
| 2026-05-07 20:23 | -32.18990 | -59.90207 | 34754 ft | 516 kts | 123° |
| 2026-05-07 20:24 | -32.23356 | -59.83469 | 34713 ft | 517 kts | 122° |
| 2026-05-07 20:24 | -32.27724 | -59.76716 | 34707 ft | 518 kts | 122° |
| 2026-05-07 20:25 | -32.32102 | -59.69944 | 34706 ft | 518 kts | 122° |
| 2026-05-07 20:25 | -32.36472 | -59.63159 | 34721 ft | 518 kts | 121° |
| 2026-05-07 20:26 | -32.40845 | -59.56373 | 34690 ft | 519 kts | 120° |
| 2026-05-07 20:26 | -32.45229 | -59.49571 | 34696 ft | 520 kts | 120° |
| 2026-05-07 20:27 | -32.49609 | -59.42756 | 34693 ft | 520 kts | 120° |
| 2026-05-07 20:27 | -32.53986 | -59.35917 | 34697 ft | 521 kts | 120° |
| 2026-05-07 20:28 | -32.58356 | -59.29062 | 34688 ft | 521 kts | 119° |
| 2026-05-07 20:28 | -32.62717 | -59.22202 | 34696 ft | 521 kts | 119° |
| 2026-05-07 20:29 | -32.67067 | -59.15333 | 34716 ft | 521 kts | 119° |
| 2026-05-07 20:29 | -32.71423 | -59.08442 | 34714 ft | 521 kts | 119° |
| 2026-05-07 20:30 | -32.75781 | -59.01557 | 34680 ft | 521 kts | 119° |
| 2026-05-07 20:30 | -32.80138 | -58.94671 | 34697 ft | 521 kts | 119° |
| 2026-05-07 20:31 | -32.84485 | -58.87767 | 34728 ft | 521 kts | 119° |
| 2026-05-07 20:31 | -32.88822 | -58.80861 | 34727 ft | 521 kts | 119° |
| 2026-05-07 20:32 | -32.93159 | -58.73948 | 34727 ft | 521 kts | 118° |
| 2026-05-07 20:32 | -32.97486 | -58.67023 | 34728 ft | 521 kts | 118° |
| 2026-05-07 20:33 | -33.01830 | -58.60125 | 34725 ft | 522 kts | 120° |
| 2026-05-07 20:33 | -33.06519 | -58.53455 | 34704 ft | 526 kts | 125° |
| 2026-05-07 20:34 | -33.11446 | -58.46983 | 34654 ft | 527 kts | 125° |
| 2026-05-07 20:34 | -33.16331 | -58.40476 | 34688 ft | 526 kts | 123° |
| 2026-05-07 20:35 | -33.21112 | -58.33873 | 34678 ft | 526 kts | 123° |
| 2026-05-07 20:35 | -33.25872 | -58.27230 | 34683 ft | 527 kts | 123° |
| 2026-05-07 20:36 | -33.30649 | -58.20584 | 34674 ft | 527 kts | 123° |
| 2026-05-07 20:36 | -33.35439 | -58.13956 | 34672 ft | 526 kts | 123° |
| 2026-05-07 20:37 | -33.40230 | -58.07329 | 34675 ft | 526 kts | 123° |
| 2026-05-07 20:37 | -33.45009 | -58.00694 | 34677 ft | 526 kts | 123° |
| 2026-05-07 20:38 | -33.49780 | -57.94044 | 34691 ft | 526 kts | 122° |
| 2026-05-07 20:38 | -33.54542 | -57.87379 | 34385 ft | 526 kts | 122° |
| 2026-05-07 20:38 | -33.56920 | -57.84054 | 34083 ft | 523 kts | 121° |
| 2026-05-07 20:39 | -33.59280 | -57.80751 | 33457 ft | 522 kts | 121° |
| 2026-05-07 20:39 | -33.61580 | -57.77523 | 32916 ft | 517 kts | 121° |
| 2026-05-07 20:39 | -33.63954 | -57.74187 | 32391 ft | 514 kts | 121° |
| 2026-05-07 20:39 | -33.66264 | -57.70935 | 31819 ft | 512 kts | 121° |
| 2026-05-07 20:40 | -33.68568 | -57.67686 | 31294 ft | 508 kts | 122° |
| 2026-05-07 20:40 | -33.70853 | -57.64462 | 30727 ft | 505 kts | 122° |
| 2026-05-07 20:40 | -33.73126 | -57.61257 | 30255 ft | 501 kts | 122° |
| 2026-05-07 20:40 | -33.75378 | -57.58079 | 29730 ft | 499 kts | 122° |
| 2026-05-07 20:41 | -33.77619 | -57.54913 | 29191 ft | 495 kts | 122° |
| 2026-05-07 20:41 | -33.79839 | -57.51774 | 28718 ft | 490 kts | 122° |
| 2026-05-07 20:41 | -33.82035 | -57.48666 | 28220 ft | 486 kts | 122° |
| 2026-05-07 20:41 | -33.84214 | -57.45576 | 27752 ft | 481 kts | 122° |
| 2026-05-07 20:42 | -33.86369 | -57.42515 | 27297 ft | 477 kts | 123° |
| 2026-05-07 20:42 | -33.88506 | -57.39482 | 26854 ft | 473 kts | 123° |
| 2026-05-07 20:42 | -33.90623 | -57.36477 | 26386 ft | 469 kts | 124° |
| 2026-05-07 20:42 | -33.92725 | -57.33495 | 25980 ft | 465 kts | 124° |
| 2026-05-07 20:43 | -33.94809 | -57.30536 | 25554 ft | 462 kts | 124° |
| 2026-05-07 20:43 | -33.96884 | -57.27592 | 25091 ft | 460 kts | 124° |
| 2026-05-07 20:43 | -33.98948 | -57.24663 | 24640 ft | 457 kts | 125° |
| 2026-05-07 20:43 | -34.01002 | -57.21742 | 24177 ft | 456 kts | 125° |
| 2026-05-07 20:44 | -34.03047 | -57.18829 | 23709 ft | 454 kts | 126° |
| 2026-05-07 20:44 | -34.05081 | -57.15932 | 23236 ft | 453 kts | 126° |
| 2026-05-07 20:44 | -34.07117 | -57.13025 | 22704 ft | 452 kts | 126° |
| 2026-05-07 20:44 | -34.09131 | -57.10142 | 22214 ft | 448 kts | 126° |
| 2026-05-07 20:45 | -34.11133 | -57.07279 | 21766 ft | 445 kts | 127° |
| 2026-05-07 20:45 | -34.13129 | -57.04429 | 21293 ft | 443 kts | 127° |
| 2026-05-07 20:45 | -34.15110 | -57.01602 | 20833 ft | 440 kts | 128° |
| 2026-05-07 20:45 | -34.17082 | -56.98784 | 20374 ft | 438 kts | 128° |
| 2026-05-07 20:46 | -34.19044 | -56.95978 | 19915 ft | 436 kts | 128° |
| 2026-05-07 20:46 | -34.20990 | -56.93190 | 19456 ft | 433 kts | 129° |
| 2026-05-07 20:46 | -34.22924 | -56.90412 | 19005 ft | 431 kts | 129° |
| 2026-05-07 20:46 | -34.24853 | -56.87636 | 18554 ft | 430 kts | 129° |
| 2026-05-07 20:47 | -34.26762 | -56.84890 | 18149 ft | 423 kts | 130° |
| 2026-05-07 20:47 | -34.28630 | -56.82205 | 17626 ft | 410 kts | 130° |
| 2026-05-07 20:47 | -34.30431 | -56.79609 | 17214 ft | 395 kts | 130° |
| 2026-05-07 20:47 | -34.32170 | -56.77097 | 16813 ft | 387 kts | 130° |
| 2026-05-07 20:48 | -34.33896 | -56.74602 | 16415 ft | 389 kts | 130° |
| 2026-05-07 20:48 | -34.35701 | -56.71992 | 16007 ft | 411 kts | 130° |
| 2026-05-07 20:48 | -34.37486 | -56.69408 | 15676 ft | 391 kts | 130° |
| 2026-05-07 20:48 | -34.39200 | -56.66923 | 15109 ft | 379 kts | 130° |
| 2026-05-07 20:49 | -34.40869 | -56.64501 | 14523 ft | 368 kts | 131° |
| 2026-05-07 20:49 | -34.42472 | -56.62171 | 14217 ft | 351 kts | 130° |
| 2026-05-07 20:49 | -34.44001 | -56.59947 | 13988 ft | 335 kts | 131° |
| 2026-05-07 20:49 | -34.45455 | -56.57832 | 13708 ft | 320 kts | 131° |
| 2026-05-07 20:50 | -34.46850 | -56.55800 | 13385 ft | 308 kts | 132° |
| 2026-05-07 20:50 | -34.48198 | -56.53834 | 13040 ft | 301 kts | 133° |
| 2026-05-07 20:50 | -34.49537 | -56.51889 | 12718 ft | 299 kts | 133° |
| 2026-05-07 20:50 | -34.50768 | -56.49875 | 12395 ft | 297 kts | 124° |
| 2026-05-07 20:51 | -34.51706 | -56.47633 | 12072 ft | 300 kts | 113° |
| 2026-05-07 20:51 | -34.52340 | -56.45227 | 11742 ft | 299 kts | 107° |
| 2026-05-07 20:51 | -34.52910 | -56.42802 | 11409 ft | 298 kts | 107° |
| 2026-05-07 20:51 | -34.53479 | -56.40397 | 11079 ft | 296 kts | 108° |
| 2026-05-07 20:52 | -34.54047 | -56.38004 | 10745 ft | 295 kts | 109° |
| 2026-05-07 20:52 | -34.54612 | -56.35624 | 10410 ft | 293 kts | 107° |
| 2026-05-07 20:52 | -34.55174 | -56.33250 | 10067 ft | 292 kts | 107° |
| 2026-05-07 20:52 | -34.55731 | -56.30891 | 9729 ft | 290 kts | 108° |
| 2026-05-07 20:53 | -34.56285 | -56.28543 | 9366 ft | 289 kts | 108° |
| 2026-05-07 20:53 | -34.56838 | -56.26208 | 8996 ft | 287 kts | 108° |
| 2026-05-07 20:53 | -34.57386 | -56.23896 | 8653 ft | 284 kts | 107° |
| 2026-05-07 20:53 | -34.57928 | -56.21604 | 8291 ft | 282 kts | 108° |
| 2026-05-07 20:54 | -34.58465 | -56.19327 | 7934 ft | 280 kts | 108° |
| 2026-05-07 20:54 | -34.58997 | -56.17069 | 7581 ft | 277 kts | 107° |
| 2026-05-07 20:54 | -34.59524 | -56.14832 | 7208 ft | 275 kts | 107° |
| 2026-05-07 20:54 | -34.60049 | -56.12602 | 6830 ft | 274 kts | 108° |
| 2026-05-07 20:55 | -34.60574 | -56.10382 | 6461 ft | 273 kts | 108° |
| 2026-05-07 20:55 | -34.61095 | -56.08165 | 6076 ft | 273 kts | 108° |
| 2026-05-07 20:55 | -34.61613 | -56.05957 | 5677 ft | 271 kts | 108° |
| 2026-05-07 20:55 | -34.62127 | -56.03760 | 5280 ft | 270 kts | 107° |
| 2026-05-07 20:56 | -34.62639 | -56.01573 | 4891 ft | 269 kts | 109° |
| 2026-05-07 20:56 | -34.63152 | -55.99383 | 4490 ft | 270 kts | 109° |
| 2026-05-07 20:56 | -34.63662 | -55.97194 | 4070 ft | 270 kts | 109° |
| 2026-05-07 20:56 | -34.64174 | -55.95000 | 3656 ft | 269 kts | 110° |
| 2026-05-07 20:57 | -34.64885 | -55.92956 | 3448 ft | 254 kts | 126° |
| 2026-05-07 20:57 | -34.65941 | -55.91346 | 3387 ft | 235 kts | 142° |
| 2026-05-07 20:57 | -34.67179 | -55.90153 | 3333 ft | 222 kts | 149° |
| 2026-05-07 20:57 | -34.68407 | -55.89051 | 3288 ft | 220 kts | 149° |
| 2026-05-07 20:58 | -34.69641 | -55.87945 | 3238 ft | 220 kts | 149° |
| 2026-05-07 20:58 | -34.70847 | -55.86859 | 3178 ft | 209 kts | 150° |
| 2026-05-07 20:58 | -34.72100 | -55.86176 | 3085 ft | 191 kts | 179° |
| 2026-05-07 20:58 | -34.73354 | -55.86430 | 3045 ft | 180 kts | 209° |
| 2026-05-07 20:59 | -34.74281 | -55.87411 | 2920 ft | 175 kts | 232° |
| 2026-05-07 20:59 | -34.74989 | -55.88579 | 2695 ft | 169 kts | 232° |
| 2026-05-07 20:59 | -34.75674 | -55.89705 | 2477 ft | 162 kts | 232° |
| 2026-05-07 20:59 | -34.76335 | -55.90789 | 2271 ft | 157 kts | 233° |
| 2026-05-07 21:00 | -34.76763 | -55.91490 | 2131 ft | 155 kts | 232° |
| 2026-05-07 21:00 | -34.77387 | -55.92511 | 1922 ft | 144 kts | 233° |
| 2026-05-07 21:00 | -34.77969 | -55.93463 | 1754 ft | 138 kts | 233° |
| 2026-05-07 21:00 | -34.78537 | -55.94391 | 1560 ft | 135 kts | 232° |
| 2026-05-07 21:01 | -34.79094 | -55.95303 | 1390 ft | 134 kts | 233° |
| 2026-05-07 21:01 | -34.79656 | -55.96223 | 1195 ft | 136 kts | 233° |
| 2026-05-07 21:01 | -34.80218 | -55.97135 | 1024 ft | 133 kts | 234° |
| 2026-05-07 21:01 | -34.80772 | -55.98041 | 829 ft | 132 kts | 236° |
| 2026-05-07 21:02 | -34.81325 | -55.98952 | 605 ft | 134 kts | 239° |
| 2026-05-07 21:02 | -34.81879 | -55.99868 | 425 ft | 137 kts | 234° |
| 2026-05-07 21:02 | -34.82449 | -56.00798 | 257 ft | 136 kts | 240° |
| 2026-05-07 21:02 | -34.83009 | -56.01717 | 103 ft | 131 kts | 238° |
| 2026-05-07 21:03 | -34.83451 | -56.02452 | 91 ft | 69 kts | 232° |
| 2026-05-07 21:03 | -34.83617 | -56.02721 | 90 ft | 31 kts | 234° |
| 2026-05-07 21:03 | -34.83693 | -56.02840 | 85 ft | 14 kts | 214° |
| 2026-05-07 21:03 | -34.83795 | -56.02850 | 83 ft | 16 kts | 178° |
| 2026-05-07 21:04 | -34.83914 | -56.02826 | 62 ft | 20 kts | 156° |
| 2026-05-07 21:04 | -34.83977 | -56.02735 | 62 ft | 12 kts | 81° |
| 2026-05-07 21:04 | -34.83951 | -56.02644 | 58 ft | 11 kts | 79° |
| 2026-05-07 21:04 | -34.83947 | -56.02558 | 61 ft | 10 kts | 90° |
| 2026-05-07 21:05 | -34.83947 | -56.02481 | 61 ft | 9 kts | 90° |
| 2026-05-07 21:05 | -34.83948 | -56.02395 | 61 ft | 13 kts | 90° |
| 2026-05-07 21:05 | -34.83948 | -56.02288 | 61 ft | 12 kts | 86° |
| 2026-05-07 21:05 | -34.83876 | -56.02244 | 64 ft | 13 kts | 4° |
| 2026-05-07 21:06 | -34.83785 | -56.02230 | 69 ft | 12 kts | 22° |
| 2026-05-07 21:06 | -34.83734 | -56.02161 | 70 ft | 11 kts | 54° |
| 2026-05-07 21:06 | -34.83692 | -56.02091 | 67 ft | 11 kts | 53° |
| 2026-05-07 21:06 | -34.83640 | -56.02005 | 74 ft | 13 kts | 53° |
| 2026-05-07 21:07 | -34.83587 | -56.01919 | 74 ft | 12 kts | 53° |
| 2026-05-07 21:07 | -34.83541 | -56.01844 | 70 ft | 10 kts | 53° |
| 2026-05-07 21:07 | -34.83508 | -56.01780 | 70 ft | 6 kts | 95° |
| 2026-05-07 21:07 | -34.83534 | -56.01746 | 68 ft | 5 kts | 134° |
| 2026-05-07 21:08 | -34.83555 | -56.01725 | 74 ft | 3 kts | 143° |
| 2026-05-07 21:08 | -34.83565 | -56.01716 | 70 ft | 0 kts | 144° |